createdAt,value
2024-03-06T00:03:26.875Z,20.10
2024-03-06T00:08:30.028Z,17.93
2024-03-06T00:13:32.887Z,15.80
2024-03-06T00:18:37.009Z,18.87
2024-03-06T00:23:40.204Z,15.33
2024-03-06T00:28:42.924Z,23.10
2024-03-06T00:33:47.031Z,15.70
2024-03-06T00:38:49.854Z,13.30
2024-03-06T00:43:52.766Z,10.60
2024-03-06T00:48:56.799Z,12.97
2024-03-06T00:53:59.814Z,18.10
2024-03-06T00:59:02.509Z,13.87
2024-03-06T01:04:07.259Z,13.50
2024-03-06T01:09:10.355Z,14.60
2024-03-06T01:14:18.091Z,15.47
2024-03-06T01:19:22.810Z,17.83
2024-03-06T01:24:25.885Z,18.07
2024-03-06T01:29:28.531Z,13.50
2024-03-06T01:34:32.640Z,11.90
2024-03-06T01:39:37.789Z,15.53
2024-03-06T01:44:40.542Z,13.87
2024-03-06T01:49:45.649Z,16.27
2024-03-06T01:54:52.217Z,14.07
2024-03-06T01:59:55.737Z,15.30
2024-03-06T02:10:18.110Z,17.60
2024-03-06T02:15:21.228Z,14.90
2024-03-06T02:20:26.267Z,12.43
2024-03-06T02:25:29.452Z,16.23
2024-03-06T02:30:37.834Z,14.40
2024-03-06T02:35:46.538Z,13.70
2024-03-06T02:40:51.217Z,10.93
2024-03-06T02:45:54.308Z,20.73
2024-03-06T02:50:58.974Z,11.77
2024-03-06T02:56:01.692Z,15.40
2024-03-06T03:01:04.521Z,14.80
2024-03-06T03:06:08.948Z,18.00
2024-03-06T03:11:12.761Z,16.17
2024-03-06T03:16:19.723Z,15.00
2024-03-06T03:21:23.955Z,13.50
2024-03-06T03:26:26.596Z,13.30
2024-03-06T03:31:29.284Z,17.23
2024-03-06T03:36:34.206Z,18.53
2024-03-06T03:41:36.930Z,14.80
2024-03-06T03:46:40.009Z,18.30
2024-03-06T03:51:44.261Z,16.70
2024-03-06T03:56:47.121Z,17.00
2024-03-06T04:01:49.864Z,19.23
2024-03-06T04:06:56.034Z,18.90
2024-03-06T04:11:59.621Z,15.50
2024-03-06T04:17:03.818Z,16.53
2024-03-06T04:22:10.452Z,21.93
2024-03-06T04:27:13.071Z,22.50
2024-03-06T04:32:15.767Z,16.30
2024-03-06T04:37:20.247Z,20.83
2024-03-06T04:42:22.893Z,81.20
2024-03-06T04:47:29.355Z,20.47
2024-03-06T04:52:34.735Z,17.80
2024-03-06T04:57:41.700Z,16.90
2024-03-06T06:01:39.905Z,27.60
2024-03-06T06:06:45.459Z,24.43
2024-03-06T06:11:51.614Z,31.60
2024-03-06T06:16:54.469Z,31.23
2024-03-06T06:21:57.355Z,35.33
2024-03-06T06:27:01.377Z,26.13
2024-03-06T06:32:04.056Z,26.70
2024-03-06T06:37:06.819Z,119.83
2024-03-06T06:42:12.379Z,27.60
2024-03-06T06:47:15.429Z,25.73
2024-03-06T06:52:21.893Z,68.40
2024-03-06T06:57:26.070Z,42.53
2024-03-06T07:02:29.067Z,29.37
2024-03-06T07:07:31.869Z,27.97
2024-03-06T07:12:37.099Z,28.57
2024-03-06T07:17:39.859Z,29.47
2024-03-06T07:22:45.647Z,27.53
2024-03-06T07:27:49.691Z,27.30
2024-03-06T07:32:54.853Z,23.43
2024-03-06T07:37:58.012Z,25.17
2024-03-06T07:43:02.081Z,32.67
2024-03-06T07:48:05.913Z,35.23
2024-03-06T07:53:08.636Z,33.00
2024-03-06T07:58:14.090Z,33.77
2024-03-06T08:03:17.072Z,33.63
2024-03-06T08:08:19.925Z,38.40
2024-03-06T08:13:25.586Z,34.13
2024-03-06T08:18:28.375Z,35.53
2024-03-06T08:23:31.590Z,38.10
2024-03-06T08:28:35.735Z,37.70
2024-03-06T08:33:38.754Z,35.33
2024-03-06T08:38:42.897Z,33.80
2024-03-06T08:43:47.002Z,32.47
2024-03-06T08:48:52.541Z,29.33
2024-03-06T08:53:59.521Z,28.73
2024-03-06T08:59:04.693Z,33.07
2024-03-06T09:04:08.416Z,27.17
2024-03-06T09:09:14.566Z,25.40
2024-03-06T09:14:18.988Z,23.03
2024-03-06T09:19:21.718Z,26.73
2024-03-06T09:24:26.059Z,26.20
2024-03-06T09:29:30.261Z,26.20
2024-03-06T09:34:32.940Z,20.63
2024-03-06T09:39:37.380Z,24.13
2024-03-06T09:44:42.773Z,23.20
2024-03-06T09:49:45.913Z,18.90
2024-03-06T09:54:49.641Z,18.23
2024-03-06T09:59:53.891Z,20.33
2024-03-06T10:04:56.631Z,19.93
2024-03-06T10:16:57.126Z,17.23
2024-03-06T10:22:00.008Z,21.70
2024-03-06T10:27:03.169Z,48.17
2024-03-06T10:32:08.978Z,26.33
2024-03-06T10:37:12.039Z,26.53
2024-03-06T10:42:15.505Z,23.23
2024-03-06T10:47:22.271Z,21.90
2024-03-06T10:52:25.514Z,23.30
2024-03-06T10:57:29.617Z,29.50
2024-03-06T11:02:34.380Z,25.57
2024-03-06T11:07:38.057Z,24.50
2024-03-06T11:12:41.269Z,28.50
2024-03-06T11:17:46.052Z,24.20
2024-03-06T11:23:12.665Z,29.87
2024-03-06T11:28:19.450Z,32.20
2024-03-06T11:33:24.154Z,31.70
2024-03-06T11:38:27.620Z,29.60
2024-03-06T11:43:31.348Z,34.47
2024-03-06T11:48:35.592Z,38.00
2024-03-06T11:53:42.645Z,41.97
2024-03-06T11:58:48.669Z,38.97
2024-03-06T12:03:54.138Z,40.72
2024-03-06T12:08:57.466Z,39.10
2024-03-06T12:14:00.198Z,38.70
2024-03-06T12:19:04.340Z,52.77
2024-03-06T12:24:08.407Z,51.17
2024-03-06T12:29:12.842Z,53.07
2024-03-06T12:34:18.138Z,61.97
2024-03-06T12:39:24.153Z,51.53
2024-03-06T12:44:27.809Z,58.93
2024-03-06T12:49:31.966Z,60.60
2024-03-06T12:54:39.628Z,55.87
2024-03-06T12:59:44.061Z,52.57
2024-03-06T13:04:48.199Z,49.37
2024-03-06T13:09:51.713Z,79.83
2024-03-06T13:14:55.047Z,59.40
2024-03-06T13:19:59.317Z,51.40
2024-03-06T13:25:05.873Z,53.23
2024-03-06T13:30:10.010Z,44.23
2024-03-06T13:35:14.550Z,52.80
2024-03-06T13:40:17.765Z,45.47
2024-03-06T13:45:23.286Z,39.00
2024-03-06T13:50:29.445Z,29.70
2024-03-06T13:55:34.504Z,31.10
2024-03-06T14:00:37.351Z,24.93
2024-03-06T14:05:42.108Z,30.47
2024-03-06T14:10:46.962Z,30.27
2024-03-06T14:15:50.476Z,27.57
2024-03-06T14:20:54.667Z,34.57
2024-03-06T14:25:57.462Z,36.13
2024-03-06T14:31:01.520Z,34.07
2024-03-06T14:36:09.040Z,39.13
2024-03-06T14:41:11.954Z,31.27
2024-03-06T14:46:16.953Z,26.70
2024-03-06T14:51:21.372Z,27.80
2024-03-06T14:56:24.205Z,26.90
2024-03-06T15:01:29.771Z,28.03
2024-03-06T15:06:34.403Z,31.60
2024-03-06T15:11:37.281Z,30.67
2024-03-06T15:16:41.009Z,24.67
2024-03-06T15:21:46.380Z,34.10
2024-03-06T15:26:49.276Z,36.97
2024-03-06T15:31:52.129Z,30.63
2024-03-06T15:36:57.821Z,26.27
2024-03-06T15:42:04.350Z,23.60
2024-03-06T15:47:10.864Z,24.90
2024-03-06T15:52:16.291Z,21.90
2024-03-06T15:57:19.699Z,22.60
2024-03-06T16:02:24.858Z,22.23
2024-03-06T16:07:29.233Z,19.70
2024-03-06T16:12:32.122Z,18.10
2024-03-06T16:17:35.777Z,15.17
2024-03-06T16:22:40.077Z,19.30
2024-03-06T16:27:42.726Z,37.57
2024-03-06T16:32:45.507Z,33.33
2024-03-06T16:37:51.800Z,35.30
2024-03-06T16:42:54.995Z,32.70
2024-03-06T16:48:01.014Z,34.00
2024-03-06T16:53:09.209Z,33.03
2024-03-06T16:58:12.958Z,36.60
2024-03-06T17:03:15.821Z,37.03
2024-03-06T17:08:19.999Z,32.43
2024-03-06T17:13:22.956Z,32.30
2024-03-06T17:18:25.736Z,34.87
2024-03-06T17:23:30.329Z,65.70
2024-03-06T17:28:33.087Z,38.10
2024-03-06T17:33:39.215Z,30.60
2024-03-06T17:38:47.621Z,31.80
2024-03-06T17:43:53.266Z,32.30
2024-03-06T17:48:55.988Z,31.67
2024-03-06T17:54:00.193Z,31.50
2024-03-06T17:59:03.366Z,33.57
2024-03-06T18:04:06.718Z,35.97
2024-03-06T18:09:16.122Z,35.37
2024-03-06T18:14:23.387Z,37.17
2024-03-06T18:19:27.011Z,29.53
2024-03-06T18:24:31.208Z,32.87
2024-03-06T18:29:35.056Z,32.30
2024-03-06T18:34:38.919Z,33.77
2024-03-06T18:39:45.356Z,32.50
2024-03-06T18:44:48.215Z,43.00
2024-03-06T18:49:51.475Z,39.83
2024-03-06T18:54:55.477Z,82.60
2024-03-06T18:59:58.211Z,40.27
2024-03-06T19:05:01.019Z,51.20
2024-03-06T19:10:06.642Z,53.87
2024-03-06T19:15:11.105Z,33.67
2024-03-06T19:20:14.865Z,33.90
2024-03-06T19:25:20.834Z,36.70
2024-03-06T19:30:23.725Z,36.00
2024-03-06T19:35:27.063Z,34.87
2024-03-06T19:40:31.687Z,52.23
2024-03-06T19:45:34.351Z,37.77
2024-03-06T19:50:37.223Z,54.27
2024-03-06T19:55:41.299Z,47.77
2024-03-06T20:00:45.617Z,34.47
2024-03-06T20:05:49.440Z,37.37
2024-03-06T20:10:53.918Z,39.70
2024-03-06T20:15:57.377Z,38.00
2024-03-06T20:21:01.267Z,40.83
2024-03-06T20:26:09.070Z,40.63
2024-03-06T20:31:18.885Z,40.70
2024-03-06T20:36:21.890Z,43.13
2024-03-06T20:41:28.607Z,40.10
2024-03-06T20:46:32.544Z,56.67
2024-03-06T20:51:36.407Z,41.33
2024-03-06T20:56:40.894Z,47.03
2024-03-06T21:01:46.018Z,110.80
2024-03-06T21:06:48.954Z,43.57
2024-03-06T21:11:55.931Z,40.77
2024-03-06T21:17:01.471Z,45.43
2024-03-06T21:22:05.709Z,45.07
2024-03-06T21:27:09.746Z,47.53
2024-03-06T21:32:12.440Z,47.20
2024-03-06T21:37:15.302Z,44.70
2024-03-06T21:42:21.685Z,49.93
2024-03-06T21:47:24.485Z,47.20
2024-03-06T21:52:27.532Z,47.40
2024-03-06T21:57:31.596Z,44.67
2024-03-06T22:02:34.249Z,46.80
2024-03-06T22:07:38.140Z,46.40
2024-03-06T22:12:42.202Z,51.73
2024-03-06T22:17:46.990Z,47.77
2024-03-06T22:22:52.301Z,52.63
2024-03-06T22:27:56.416Z,54.07
2024-03-06T22:32:59.791Z,51.57
2024-03-06T22:38:02.742Z,51.00
2024-03-06T22:43:07.828Z,51.03
2024-03-06T22:48:10.853Z,48.97
2024-03-06T22:53:14.735Z,56.37
2024-03-06T22:58:23.579Z,50.37
2024-03-06T23:03:26.341Z,59.90
2024-03-06T23:08:31.068Z,52.47
2024-03-06T23:13:35.139Z,47.90
2024-03-06T23:18:37.894Z,49.93
2024-03-06T23:23:40.634Z,52.57
2024-03-06T23:28:44.721Z,52.40
2024-03-06T23:33:47.425Z,59.67
2024-03-06T23:38:51.258Z,53.13
2024-03-06T23:43:58.079Z,52.87
2024-03-06T23:49:01.927Z,55.97
2024-03-06T23:54:05.091Z,61.20
2024-03-06T23:59:09.313Z,66.20
